createdAt,value
2019-04-10T00:00:23.245Z,99.9939
2019-04-10T00:01:25.677Z,99.9939
2019-04-10T00:02:26.958Z,99.9939
2019-04-10T00:03:34.446Z,99.9939
2019-04-10T00:04:34.832Z,99.9939
2019-04-10T00:05:36.231Z,99.9939
2019-04-10T00:06:37.628Z,99.9939
2019-04-10T00:07:39.598Z,99.9939
2019-04-10T00:08:40.846Z,99.9939
2019-04-10T00:09:42.039Z,99.9939
2019-04-10T00:10:43.802Z,99.9939
2019-04-10T00:11:45.158Z,99.9939
2019-04-10T00:12:46.358Z,99.9939
2019-04-10T00:13:47.556Z,99.9939
2019-04-10T00:14:48.741Z,99.9939
2019-04-10T00:15:50.794Z,99.9939
2019-04-10T00:16:52.247Z,99.9939
2019-04-10T00:17:53.627Z,99.9939
2019-04-10T00:18:54.814Z,99.9939
2019-04-10T00:19:56.076Z,99.9939
2019-04-10T00:20:57.286Z,99.9939
2019-04-10T00:21:58.538Z,99.9939
2019-04-10T00:23:00.338Z,99.9939
2019-04-10T00:24:01.576Z,99.9939
2019-04-10T00:25:04.232Z,99.9939
2019-04-10T00:26:05.473Z,99.9939
2019-04-10T00:27:06.742Z,99.9939
2019-04-10T00:28:08.163Z,99.9939
2019-04-10T00:29:08.834Z,99.9939
2019-04-10T00:30:11.012Z,99.9939
2019-04-10T00:31:12.260Z,99.9939
2019-04-10T00:32:12.466Z,99.9939
2019-04-10T00:33:13.659Z,99.9939
2019-04-10T00:34:15.639Z,99.9939
2019-04-10T00:35:16.904Z,99.9939
2019-04-10T00:36:18.263Z,99.9939
2019-04-10T00:37:26.202Z,99.9939
2019-04-10T00:38:26.109Z,99.9939
2019-04-10T00:39:28.594Z,99.9939
2019-04-10T00:40:31.063Z,99.9939
2019-04-10T00:41:32.384Z,99.9939
2019-04-10T00:42:33.562Z,99.9939
2019-04-10T00:43:35.047Z,99.9939
2019-04-10T00:44:36.276Z,99.9939
2019-04-10T00:45:37.700Z,99.9939
2019-04-10T00:46:39.904Z,99.9939
2019-04-10T00:47:41.350Z,99.9939
2019-04-10T00:48:42.580Z,99.9939
2019-04-10T00:49:44.062Z,99.9939
2019-04-10T00:50:45.340Z,99.9939
2019-04-10T00:51:46.524Z,99.9939
2019-04-10T00:52:48.261Z,99.9939
2019-04-10T00:53:49.776Z,99.9939
2019-04-10T00:54:51.108Z,99.9939
2019-04-10T00:55:52.383Z,99.9939
2019-04-10T00:56:52.828Z,99.9939
2019-04-10T00:57:54.757Z,99.9939
2019-04-10T00:58:56.059Z,99.9939
2019-04-10T00:59:57.237Z,99.9939
2019-04-10T01:00:59.236Z,99.9939
2019-04-10T01:02:00.501Z,99.9939
2019-04-10T01:03:01.689Z,99.9939
2019-04-10T01:04:02.884Z,99.9939
2019-04-10T01:05:04.074Z,99.9939
2019-04-10T01:06:05.939Z,99.9939
2019-04-10T01:07:07.238Z,99.9939
2019-04-10T01:08:08.766Z,99.9939
2019-04-10T01:09:10.036Z,99.9939
2019-04-10T01:10:12.049Z,99.9939
2019-04-10T01:11:13.422Z,99.9939
2019-04-10T01:12:14.611Z,99.9939
2019-04-10T01:13:16.720Z,99.9939
2019-04-10T01:14:17.985Z,99.9939
2019-04-10T01:15:19.169Z,99.9939
2019-04-10T01:16:19.589Z,99.9939
2019-04-10T01:17:20.821Z,99.9939
2019-04-10T01:18:22.009Z,99.9939
2019-04-10T01:19:23.860Z,99.9939
2019-04-10T01:20:25.826Z,99.9939
2019-04-10T01:21:27.089Z,99.9939
2019-04-10T01:22:28.290Z,99.9939
2019-04-10T01:23:29.511Z,99.9939
2019-04-10T01:24:30.707Z,99.9939
2019-04-10T01:25:32.556Z,99.9939
2019-04-10T01:26:34.931Z,99.9939
2019-04-10T01:27:36.210Z,99.9939
2019-04-10T01:28:37.409Z,99.9939
2019-04-10T01:29:38.592Z,99.9939
2019-04-10T01:30:38.783Z,99.9939
2019-04-10T01:31:39.991Z,99.9939
2019-04-10T01:32:41.890Z,99.9939
2019-04-10T01:33:43.140Z,99.9939
2019-04-10T01:34:45.432Z,99.9939
2019-04-10T01:35:46.755Z,99.9939
2019-04-10T01:36:48.047Z,99.9939
2019-04-10T01:37:54.759Z,99.9939
2019-04-10T01:38:55.393Z,99.9939
2019-04-10T01:39:56.967Z,99.9939
2019-04-10T01:40:58.199Z,99.9939
2019-04-10T01:42:00.514Z,99.9939
2019-04-10T01:43:09.990Z,99.9939
2019-04-10T01:44:08.712Z,99.9939
2019-04-10T01:45:09.904Z,99.9939
2019-04-10T01:46:11.119Z,99.9939
2019-04-10T01:47:13.035Z,99.9939
2019-04-10T01:48:15.364Z,99.9939
2019-04-10T01:49:17.625Z,99.9939
2019-04-10T01:50:19.875Z,99.9939
2019-04-10T01:51:21.443Z,99.9939
2019-04-10T01:52:22.765Z,99.9939
2019-04-10T01:53:23.965Z,99.9939
2019-04-10T01:54:25.151Z,99.9939
2019-04-10T01:55:29.857Z,99.9939
2019-04-10T01:56:35.120Z,99.9939
2019-04-10T01:57:36.707Z,99.9939
2019-04-10T01:58:37.900Z,99.9939
2019-04-10T01:59:39.085Z,99.9939
2019-04-10T02:00:40.651Z,99.9939
2019-04-10T02:01:42.862Z,99.9939
2019-04-10T02:02:44.149Z,99.9939
2019-04-10T02:03:46.492Z,99.9939
2019-04-10T02:04:48.015Z,99.9939
2019-04-10T02:05:51.149Z,99.9939
2019-04-10T02:06:52.342Z,99.9939
2019-04-10T02:08:03.503Z,99.9939
2019-04-10T02:09:00.435Z,99.9939
2019-04-10T02:10:01.836Z,99.9939
2019-04-10T02:11:03.054Z,99.9939
2019-04-10T02:12:04.244Z,99.9939
2019-04-10T02:13:05.438Z,99.9939
2019-04-10T02:14:07.750Z,99.9939
2019-04-10T02:15:13.645Z,99.9939
2019-04-10T02:16:15.174Z,99.9939
2019-04-10T02:17:16.813Z,99.9939
2019-04-10T02:18:18.051Z,99.9939
2019-04-10T02:19:19.248Z,99.9939
2019-04-10T02:20:21.047Z,99.9939
2019-04-10T02:21:23.390Z,99.9939
2019-04-10T02:22:24.680Z,99.9939
2019-04-10T02:23:25.986Z,99.9939
2019-04-10T02:24:27.326Z,99.9939
2019-04-10T02:25:28.524Z,99.9939
2019-04-10T02:26:29.760Z,99.9939
2019-04-10T02:27:32.125Z,99.9939
2019-04-10T02:28:33.404Z,99.9939
2019-04-10T02:29:35.672Z,99.9939
2019-04-10T02:30:39.025Z,99.9939
2019-04-10T02:31:40.852Z,99.9939
2019-04-10T02:32:45.192Z,99.9939
2019-04-10T02:33:49.644Z,99.9939
2019-04-10T02:34:50.943Z,99.9939
2019-04-10T02:35:52.538Z,99.9939
2019-04-10T02:36:55.284Z,99.9939
2019-04-10T02:37:58.441Z,99.9939
2019-04-10T02:39:15.113Z,99.9939
2019-04-10T02:40:10.030Z,99.9939
2019-04-10T02:41:12.242Z,99.9939
2019-04-10T02:42:14.388Z,99.9939
2019-04-10T02:43:16.202Z,99.9939
2019-04-10T02:44:18.716Z,99.9939
2019-04-10T02:45:20.008Z,99.9939
2019-04-10T02:46:21.984Z,99.9939
2019-04-10T02:47:23.332Z,99.9939
2019-04-10T02:48:23.561Z,99.9939
2019-04-10T02:49:24.871Z,99.9939
2019-04-10T02:50:27.283Z,99.9939
2019-04-10T02:51:28.651Z,99.9939
2019-04-10T02:52:30.798Z,99.9939
2019-04-10T02:53:32.126Z,99.9939
2019-04-10T02:54:33.598Z,99.9939
2019-04-10T02:55:35.680Z,99.9939
2019-04-10T02:56:37.001Z,99.9939
2019-04-10T02:57:39.074Z,99.9939
2019-04-10T02:58:40.192Z,99.9939
2019-04-10T02:59:43.180Z,99.9939
2019-04-10T03:00:46.266Z,99.9939
2019-04-10T03:01:47.622Z,99.9939
2019-04-10T03:02:50.203Z,99.9939
2019-04-10T03:03:54.794Z,99.9939
2019-04-10T03:04:57.313Z,99.9939
2019-04-10T03:05:58.895Z,99.9939
2019-04-10T03:07:01.908Z,99.9939
2019-04-10T03:08:05.012Z,99.9939
2019-04-10T03:09:25.996Z,99.9939
2019-04-10T03:10:24.647Z,99.9939
2019-04-10T03:11:21.900Z,99.9939
2019-04-10T03:12:24.605Z,99.9939
2019-04-10T03:13:27.702Z,99.9939
2019-04-10T03:14:30.149Z,99.9939
2019-04-10T03:15:31.645Z,99.9939
2019-04-10T03:16:31.887Z,99.9939
2019-04-10T03:17:33.330Z,99.9939
2019-04-10T03:18:36.678Z,99.9939
2019-04-10T03:19:38.060Z,99.9939
2019-04-10T03:20:38.559Z,99.9939
2019-04-10T03:21:39.533Z,99.9939
2019-04-10T03:22:41.036Z,99.9939
2019-04-10T03:23:42.257Z,99.9939
2019-04-10T03:24:44.388Z,99.9939
2019-04-10T03:25:45.620Z,99.9939
2019-04-10T03:26:47.840Z,99.9939
2019-04-10T03:27:50.139Z,99.9939
2019-04-10T03:28:51.593Z,99.9939
2019-04-10T03:29:53.711Z,99.9939
2019-04-10T03:30:56.507Z,99.9939
2019-04-10T03:31:59.620Z,99.9939
2019-04-10T03:33:05.966Z,99.9939
2019-04-10T03:34:09.300Z,99.9939
2019-04-10T03:35:12.940Z,99.9939
2019-04-10T03:36:13.610Z,99.9939
2019-04-10T03:37:15.965Z,99.9939
2019-04-10T03:38:18.230Z,99.9939
2019-04-10T03:39:19.574Z,99.9939
2019-04-10T03:40:21.660Z,99.9939
2019-04-10T03:41:24.051Z,99.9939
2019-04-10T03:42:25.365Z,99.9939
2019-04-10T03:43:26.571Z,99.9939
2019-04-10T03:44:27.878Z,99.9939
2019-04-10T03:45:29.071Z,99.9939
2019-04-10T03:46:30.288Z,99.9939
2019-04-10T03:47:31.505Z,99.9939
2019-04-10T03:48:33.415Z,99.9939
2019-04-10T03:49:34.674Z,99.9939
2019-04-10T03:50:36.186Z,99.9939
2019-04-10T03:51:37.461Z,99.9939
2019-04-10T03:52:38.661Z,99.9939
2019-04-10T03:53:40.372Z,99.9939
2019-04-10T03:54:41.594Z,99.9939
2019-04-10T03:55:43.224Z,99.9939
2019-04-10T03:56:45.651Z,99.9939
2019-04-10T03:57:46.951Z,99.9939
2019-04-10T03:58:48.196Z,99.9939
2019-04-10T03:59:49.732Z,99.9939
2019-04-10T04:00:52.150Z,99.9939
2019-04-10T04:01:53.498Z,99.9939
2019-04-10T04:02:54.709Z,99.9939
2019-04-10T04:03:55.901Z,99.9939
2019-04-10T04:04:58.042Z,99.9939
2019-04-10T04:06:00.178Z,99.9939
2019-04-10T04:07:01.423Z,99.9939
2019-04-10T04:08:04.050Z,99.9939
2019-04-10T04:09:09.553Z,99.9939
2019-04-10T04:10:12.693Z,99.9939
2019-04-10T04:11:14.038Z,99.9939
2019-04-10T04:12:15.233Z,99.9939
2019-04-10T04:13:17.404Z,99.9939
2019-04-10T04:14:18.696Z,99.9939
2019-04-10T04:15:19.981Z,99.9939
2019-04-10T04:16:21.186Z,99.9939
2019-04-10T04:17:22.381Z,99.9939
2019-04-10T04:18:24.782Z,99.9939
2019-04-10T04:19:26.201Z,99.9939
2019-04-10T04:20:27.389Z,99.9939
2019-04-10T04:21:28.575Z,99.9939
2019-04-10T04:22:30.619Z,99.9939
2019-04-10T04:23:31.982Z,99.9939
2019-04-10T04:24:33.574Z,99.9939
2019-04-10T04:25:34.792Z,99.9939
2019-04-10T04:26:37.104Z,99.9939
2019-04-10T04:27:38.396Z,99.9939
2019-04-10T04:28:39.830Z,99.9939
2019-04-10T04:29:41.348Z,99.9939
2019-04-10T04:30:42.589Z,99.9939
2019-04-10T04:31:44.101Z,99.9939
2019-04-10T04:32:46.144Z,99.9939
2019-04-10T04:33:47.409Z,99.9939
2019-04-10T04:34:49.588Z,99.9939
2019-04-10T04:35:51.153Z,99.9939
2019-04-10T04:36:53.510Z,99.9939
2019-04-10T04:37:54.932Z,99.9939
2019-04-10T04:38:56.150Z,99.9939
2019-04-10T04:39:58.363Z,99.9939
2019-04-10T04:41:00.386Z,99.9939
2019-04-10T04:42:01.641Z,99.9939
2019-04-10T04:43:03.674Z,99.9939
2019-04-10T04:44:05.938Z,99.9939
2019-04-10T04:45:07.223Z,99.9939
2019-04-10T04:46:08.417Z,99.9939
2019-04-10T04:47:09.733Z,99.9939
2019-04-10T04:48:11.014Z,99.9939
2019-04-10T04:49:12.196Z,99.9939
2019-04-10T04:50:13.436Z,99.9939
2019-04-10T04:51:15.418Z,99.9939
2019-04-10T04:52:16.725Z,99.9939
2019-04-10T04:53:18.361Z,99.9939
2019-04-10T04:54:19.610Z,99.9939
2019-04-10T04:55:19.873Z,99.9939
2019-04-10T04:56:21.982Z,99.9939
2019-04-10T04:57:23.243Z,99.9939
2019-04-10T04:58:24.334Z,99.9939
2019-04-10T04:59:26.186Z,99.9939
2019-04-10T05:00:27.832Z,99.9939
2019-04-10T05:01:29.683Z,99.9939
2019-04-10T05:02:30.965Z,99.9939
2019-04-10T05:03:33.407Z,99.9939
2019-04-10T05:04:35.563Z,99.9939
2019-04-10T05:05:36.802Z,99.9939
2019-04-10T05:06:38.006Z,99.9939
2019-04-10T05:07:39.723Z,99.9939
2019-04-10T05:08:42.017Z,99.9939
2019-04-10T05:09:43.982Z,99.9939
2019-04-10T05:10:45.350Z,99.9939
2019-04-10T05:11:46.900Z,99.9939
2019-04-10T05:12:49.395Z,99.9939
2019-04-10T05:13:51.011Z,99.9939
2019-04-10T05:14:52.234Z,99.9939
2019-04-10T05:15:53.440Z,99.9939
2019-04-10T05:16:55.467Z,99.9939
2019-04-10T05:17:57.613Z,99.9939
2019-04-10T05:18:59.569Z,99.9939
2019-04-10T05:20:00.888Z,99.9939
2019-04-10T05:21:03.049Z,99.9939
2019-04-10T05:22:04.278Z,99.9939
2019-04-10T05:23:06.193Z,99.9939
2019-04-10T05:24:07.523Z,99.9939
2019-04-10T05:25:09.036Z,99.9939
2019-04-10T05:26:10.301Z,99.9939
2019-04-10T05:27:11.878Z,99.9939
2019-04-10T05:28:13.245Z,99.9939
2019-04-10T05:29:15.385Z,99.9939
2019-04-10T05:30:16.636Z,99.9939
2019-04-10T05:31:17.831Z,99.9939
2019-04-10T05:32:19.025Z,99.9939
2019-04-10T05:33:20.517Z,99.9939
2019-04-10T05:34:22.043Z,99.9939
2019-04-10T05:35:23.580Z,99.9939
2019-04-10T05:36:25.657Z,99.9939
2019-04-10T05:37:27.523Z,99.9939
2019-04-10T05:38:29.169Z,99.9939
2019-04-10T05:39:39.707Z,99.9939
2019-04-10T05:40:36.747Z,99.9939
2019-04-10T05:41:37.990Z,99.9939
2019-04-10T05:42:39.495Z,99.9939
2019-04-10T05:43:40.794Z,99.9939
2019-04-10T05:44:42.322Z,99.9939
2019-04-10T05:45:43.553Z,99.9939
2019-04-10T05:46:45.237Z,99.9939
2019-04-10T05:47:47.501Z,99.9939
2019-04-10T05:48:49.148Z,99.9939
2019-04-10T05:49:50.707Z,99.9939
2019-04-10T05:50:58.183Z,99.9939
2019-04-10T05:51:58.043Z,99.9939
2019-04-10T05:53:00.100Z,99.9939
2019-04-10T05:54:02.308Z,99.9939
2019-04-10T05:55:04.204Z,99.9939
2019-04-10T05:56:05.642Z,99.9939
2019-04-10T05:57:06.882Z,99.9939
2019-04-10T05:58:09.677Z,99.9939
2019-04-10T05:59:13.158Z,99.9939
2019-04-10T06:00:14.778Z,99.9939
2019-04-10T06:01:16.000Z,99.9939
2019-04-10T06:02:17.864Z,99.9939
2019-04-10T06:03:19.134Z,99.9939
2019-04-10T06:04:21.021Z,99.9939
2019-04-10T06:05:22.422Z,99.9939
2019-04-10T06:06:24.254Z,99.9939
2019-04-10T06:07:25.503Z,99.9939
2019-04-10T06:08:26.698Z,99.9939
2019-04-10T06:09:28.938Z,99.9939
2019-04-10T06:10:30.244Z,99.9939
2019-04-10T06:11:31.490Z,99.9939
2019-04-10T06:12:32.719Z,99.9939
2019-04-10T06:13:34.761Z,99.9939
2019-04-10T06:14:36.009Z,99.9939
2019-04-10T06:15:37.268Z,99.9939
2019-04-10T06:16:38.459Z,99.9939
2019-04-10T06:17:40.662Z,99.9939
2019-04-10T06:18:40.958Z,99.9939
2019-04-10T06:19:42.672Z,99.9939
2019-04-10T06:20:45.156Z,99.9939
2019-04-10T06:21:46.473Z,99.9939
2019-04-10T06:22:47.671Z,99.9939
2019-04-10T06:23:49.825Z,99.9939
2019-04-10T06:24:52.222Z,99.9939
2019-04-10T06:25:54.137Z,99.9939
2019-04-10T06:26:56.174Z,99.9939
2019-04-10T06:27:57.409Z,99.9939
2019-04-10T06:28:58.982Z,99.9939
2019-04-10T06:30:00.235Z,99.9939
2019-04-10T06:31:01.695Z,99.9939
2019-04-10T06:32:03.256Z,99.9939
2019-04-10T06:33:04.500Z,99.9939
2019-04-10T06:34:06.824Z,99.9939
2019-04-10T06:35:08.353Z,99.9939
2019-04-10T06:36:09.156Z,99.9939
2019-04-10T06:37:10.481Z,99.9939
2019-04-10T06:38:10.773Z,99.9939
2019-04-10T06:39:12.904Z,99.9939
2019-04-10T06:40:20.557Z,99.9939
2019-04-10T06:41:20.359Z,99.9939
2019-04-10T06:42:22.547Z,99.9939
2019-04-10T06:43:23.808Z,99.9939
2019-04-10T06:44:25.898Z,99.9418
2019-04-10T06:45:28.007Z,99.8334
2019-04-10T06:46:29.279Z,99.8992
2019-04-10T06:47:30.581Z,99.6957
2019-04-10T06:48:32.181Z,99.3913
2019-04-10T06:49:33.423Z,98.7868
2019-04-10T06:50:33.619Z,98.7543
2019-04-10T06:51:33.817Z,98.8465
2019-04-10T06:52:34.540Z,99.1143
2019-04-10T06:53:35.789Z,99.0310
2019-04-10T06:54:37.012Z,98.5612
2019-04-10T06:55:38.555Z,98.6104
2019-04-10T06:56:40.966Z,98.6131
2019-04-10T06:57:49.177Z,98.6503
2019-04-10T06:58:48.403Z,98.4918
2019-04-10T06:59:50.312Z,97.7656
2019-04-10T07:00:53.434Z,97.8112
2019-04-10T07:01:57.108Z,97.4772
2019-04-10T07:03:03.130Z,97.6369
2019-04-10T07:04:07.612Z,97.7783
2019-04-10T07:05:11.948Z,97.8473
2019-04-10T07:06:17.624Z,97.6630
2019-04-10T07:07:21.758Z,97.4824
2019-04-10T07:08:25.998Z,97.7221
2019-04-10T07:09:29.646Z,97.3345
2019-04-10T07:10:42.592Z,96.8834
2019-04-10T07:11:37.092Z,97.0400
2019-04-10T07:12:39.549Z,97.6329
2019-04-10T07:13:41.665Z,97.9673
2019-04-10T07:14:45.545Z,97.8656
2019-04-10T07:15:49.796Z,97.7592
2019-04-10T07:16:51.065Z,97.4943
2019-04-10T07:17:53.327Z,97.6954
2019-04-10T07:18:54.739Z,97.2722
2019-04-10T07:19:55.612Z,97.1886
2019-04-10T07:20:59.906Z,96.5422
2019-04-10T07:22:08.331Z,96.4839
2019-04-10T07:23:08.917Z,96.3851
2019-04-10T07:24:12.195Z,96.7418
2019-04-10T07:25:15.773Z,97.0734
2019-04-10T07:26:25.588Z,96.9017
2019-04-10T07:27:23.692Z,97.1649
2019-04-10T07:28:25.668Z,97.0365
2019-04-10T07:29:29.089Z,96.3309
2019-04-10T07:30:31.841Z,95.6654
2019-04-10T07:31:35.337Z,95.0194
2019-04-10T07:32:42.142Z,95.3066
2019-04-10T07:33:45.187Z,95.3639
2019-04-10T07:34:50.838Z,94.8304
2019-04-10T07:35:54.881Z,94.3294
2019-04-10T07:36:56.688Z,94.8752
2019-04-10T07:37:58.451Z,93.7298
2019-04-10T07:39:01.492Z,91.9217
2019-04-10T07:40:04.586Z,91.4660
2019-04-10T07:41:13.733Z,92.1785
2019-04-10T07:42:25.267Z,93.0898
2019-04-10T07:43:22.783Z,92.6642
2019-04-10T07:44:24.589Z,93.5569
2019-04-10T07:45:27.226Z,92.1716
2019-04-10T07:46:28.589Z,92.0931
2019-04-10T07:47:29.801Z,91.7386
2019-04-10T07:48:31.460Z,90.9662
2019-04-10T07:49:33.006Z,90.6122
2019-04-10T07:50:34.832Z,91.6810
2019-04-10T07:51:36.679Z,90.7595
2019-04-10T07:52:37.924Z,90.0294
2019-04-10T07:53:39.461Z,90.0020
2019-04-10T07:54:43.120Z,89.7698
2019-04-10T07:55:56.436Z,90.2589
2019-04-10T07:56:51.888Z,89.9558
2019-04-10T07:57:53.222Z,88.8311
2019-04-10T07:58:54.536Z,89.1274
2019-04-10T07:59:54.779Z,89.2529
2019-04-10T08:00:56.731Z,90.3460
2019-04-10T08:01:58.122Z,91.1261
2019-04-10T08:02:59.542Z,90.2819
2019-04-10T08:04:01.811Z,91.0523
2019-04-10T08:05:04.264Z,91.9250
2019-04-10T08:06:06.691Z,91.8663
2019-04-10T08:07:08.007Z,89.5108
2019-04-10T08:08:09.211Z,89.0245
2019-04-10T08:09:10.591Z,89.8409
2019-04-10T08:10:12.130Z,90.6818
2019-04-10T08:11:13.388Z,91.0828
2019-04-10T08:12:15.567Z,91.1182
2019-04-10T08:13:16.813Z,92.4384
2019-04-10T08:14:17.022Z,92.5152
2019-04-10T08:15:18.897Z,93.1168
2019-04-10T08:16:21.070Z,91.8172
2019-04-10T08:17:22.297Z,90.6221
2019-04-10T08:18:23.530Z,91.0521
2019-04-10T08:19:25.366Z,91.1719
2019-04-10T08:20:28.536Z,91.6896
2019-04-10T08:21:29.821Z,91.4928
2019-04-10T08:22:31.029Z,90.9704
2019-04-10T08:23:32.227Z,92.0318
2019-04-10T08:24:32.416Z,93.5113
2019-04-10T08:25:33.624Z,92.8460
2019-04-10T08:26:34.830Z,93.7936
2019-04-10T08:27:36.126Z,93.9479
2019-04-10T08:28:37.437Z,93.5457
2019-04-10T08:29:39.457Z,94.0469
2019-04-10T08:30:41.963Z,94.3366
2019-04-10T08:31:44.250Z,94.3341
2019-04-10T08:32:55.436Z,94.8094
2019-04-10T08:33:50.658Z,94.1906
2019-04-10T08:34:52.660Z,95.0480
2019-04-10T08:35:54.790Z,95.6109
2019-04-10T08:36:56.673Z,95.5249
2019-04-10T08:37:59.146Z,95.0289
2019-04-10T08:39:00.453Z,94.5773
2019-04-10T08:40:01.646Z,95.3609
2019-04-10T08:41:02.948Z,95.5177
2019-04-10T08:42:04.358Z,95.1969
2019-04-10T08:43:06.273Z,94.9985
2019-04-10T08:44:07.655Z,95.2009
2019-04-10T08:45:09.207Z,94.7842
2019-04-10T08:46:10.873Z,94.3633
2019-04-10T08:47:13.042Z,94.3340
2019-04-10T08:48:14.285Z,94.4170
2019-04-10T08:49:14.500Z,94.3780
2019-04-10T08:50:15.766Z,94.0478
2019-04-10T08:51:17.151Z,93.1937
2019-04-10T08:52:18.383Z,92.9532
2019-04-10T08:53:20.123Z,93.7859
2019-04-10T08:54:21.363Z,93.5642
2019-04-10T08:55:22.580Z,93.8307
2019-04-10T08:56:22.796Z,93.2980
2019-04-10T08:57:23.990Z,93.0272
2019-04-10T08:58:25.175Z,92.3853
2019-04-10T08:59:26.400Z,92.6610
2019-04-10T09:00:28.829Z,93.0365
2019-04-10T09:01:31.392Z,94.1460
2019-04-10T09:02:33.793Z,94.4023
2019-04-10T09:03:35.039Z,93.9519
2019-04-10T09:04:37.023Z,93.3032
2019-04-10T09:05:38.256Z,93.9206
2019-04-10T09:06:39.787Z,93.5116
2019-04-10T09:07:41.209Z,93.4319
2019-04-10T09:08:43.465Z,93.6107
2019-04-10T09:09:45.811Z,93.6358
2019-04-10T09:10:47.078Z,92.7014
2019-04-10T09:11:49.310Z,91.1245
2019-04-10T09:12:51.643Z,89.8765
2019-04-10T09:13:54.961Z,88.0936
2019-04-10T09:14:57.155Z,88.6614
2019-04-10T09:15:58.507Z,88.0353
2019-04-10T09:17:00.734Z,88.3359
2019-04-10T09:18:01.976Z,87.9820
2019-04-10T09:19:03.546Z,88.5375
2019-04-10T09:20:04.748Z,88.1154
2019-04-10T09:21:07.014Z,87.8293
2019-04-10T09:22:08.359Z,87.5134
2019-04-10T09:23:21.828Z,87.5062
2019-04-10T09:24:15.762Z,86.6062
2019-04-10T09:25:17.880Z,87.3133
2019-04-10T09:26:20.276Z,85.2494
2019-04-10T09:27:21.576Z,84.9619
2019-04-10T09:28:22.789Z,87.1182
2019-04-10T09:29:24.733Z,89.1090
2019-04-10T09:30:26.992Z,88.6879
2019-04-10T09:31:27.199Z,85.7663
2019-04-10T09:32:28.699Z,82.5791
2019-04-10T09:33:32.205Z,83.1782
2019-04-10T09:34:34.024Z,83.6467
2019-04-10T09:35:36.331Z,82.4294
2019-04-10T09:36:37.627Z,81.0789
2019-04-10T09:37:39.831Z,81.6877
2019-04-10T09:38:41.099Z,83.7869
2019-04-10T09:39:43.366Z,81.7312
2019-04-10T09:40:44.754Z,81.9935
2019-04-10T09:41:46.088Z,81.6834
2019-04-10T09:42:48.006Z,81.1720
2019-04-10T09:43:49.681Z,80.4109
2019-04-10T09:44:51.052Z,79.7879
2019-04-10T09:45:52.298Z,80.9771
2019-04-10T09:46:53.751Z,81.3556
2019-04-10T09:47:55.778Z,82.1894
2019-04-10T09:48:58.145Z,81.9625
2019-04-10T09:49:59.819Z,81.4739
2019-04-10T09:51:01.346Z,80.5751
2019-04-10T09:52:02.779Z,81.7269
2019-04-10T09:53:04.482Z,81.3220
2019-04-10T09:54:05.676Z,81.1121
2019-04-10T09:55:07.546Z,80.4659
2019-04-10T09:56:09.532Z,84.0481
2019-04-10T09:57:11.173Z,83.5004
2019-04-10T09:58:13.239Z,82.0870
2019-04-10T09:59:14.505Z,83.0478
2019-04-10T10:00:14.694Z,82.2431
2019-04-10T10:01:15.902Z,82.7043
2019-04-10T10:02:17.679Z,82.4104
2019-04-10T10:03:19.470Z,81.7452
2019-04-10T10:04:21.578Z,82.0926
2019-04-10T10:05:22.847Z,81.1371
2019-04-10T10:06:29.916Z,82.8429
2019-04-10T10:07:30.265Z,82.6571
2019-04-10T10:08:31.701Z,82.3474
2019-04-10T10:09:32.935Z,83.1305
2019-04-10T10:10:36.655Z,81.3105
2019-04-10T10:11:38.626Z,81.1625
2019-04-10T10:12:40.781Z,81.5788
2019-04-10T10:13:42.069Z,82.2343
2019-04-10T10:14:44.262Z,81.7905
2019-04-10T10:15:45.594Z,81.7066
2019-04-10T10:16:46.794Z,81.5717
2019-04-10T10:17:48.812Z,81.3874
2019-04-10T10:18:50.095Z,82.4340
2019-04-10T10:19:53.557Z,81.4350
2019-04-10T10:20:55.093Z,78.7635
2019-04-10T10:21:56.776Z,79.8895
2019-04-10T10:23:03.134Z,81.8727
2019-04-10T10:24:04.570Z,81.6163
2019-04-10T10:25:06.846Z,82.5968
2019-04-10T10:26:08.338Z,83.3807
2019-04-10T10:27:09.475Z,85.0335
2019-04-10T10:28:11.703Z,84.4186
2019-04-10T10:29:13.386Z,85.5222
2019-04-10T10:30:15.542Z,83.9128
2019-04-10T10:31:16.942Z,84.9569
2019-04-10T10:32:21.796Z,83.6626
2019-04-10T10:33:23.718Z,85.1446
2019-04-10T10:34:26.049Z,86.1329
2019-04-10T10:35:27.356Z,86.8114
2019-04-10T10:36:36.837Z,88.1166
2019-04-10T10:37:34.698Z,85.8059
2019-04-10T10:38:36.955Z,86.2932
2019-04-10T10:39:38.999Z,85.1329
2019-04-10T10:40:41.264Z,86.7795
2019-04-10T10:41:42.695Z,84.3481
2019-04-10T10:42:43.881Z,84.0781
2019-04-10T10:43:45.065Z,84.5523
2019-04-10T10:44:46.264Z,83.4409
2019-04-10T10:45:47.514Z,82.9913
2019-04-10T10:46:49.522Z,83.8744
2019-04-10T10:47:50.818Z,81.0609
2019-04-10T10:48:52.040Z,82.4584
2019-04-10T10:49:53.240Z,83.9336
2019-04-10T10:50:54.467Z,83.6233
2019-04-10T10:51:55.669Z,82.8979
2019-04-10T10:52:57.592Z,83.6922
2019-04-10T10:54:01.432Z,84.5821
2019-04-10T10:55:03.830Z,84.7488
2019-04-10T10:56:05.035Z,82.3860
2019-04-10T10:57:06.989Z,80.0017
2019-04-10T10:58:08.314Z,80.7629
2019-04-10T10:59:09.520Z,79.8369
2019-04-10T11:00:13.153Z,81.4746
2019-04-10T11:01:15.733Z,80.6612
2019-04-10T11:02:17.145Z,79.3062
2019-04-10T11:03:18.389Z,77.0519
2019-04-10T11:04:19.592Z,77.7165
2019-04-10T11:05:21.150Z,76.4451
2019-04-10T11:06:22.682Z,74.3660
2019-04-10T11:07:24.546Z,73.0336
2019-04-10T11:08:26.862Z,70.2672
2019-04-10T11:09:28.575Z,70.3844
2019-04-10T11:10:30.176Z,71.0735
2019-04-10T11:11:32.563Z,70.9298
2019-04-10T11:12:34.198Z,72.5886
2019-04-10T11:13:35.424Z,75.8580
2019-04-10T11:14:37.143Z,75.5384
2019-04-10T11:16:45.513Z,71.9310
2019-04-10T11:17:52.023Z,72.5687
2019-04-10T11:18:53.312Z,72.8308
2019-04-10T11:19:55.880Z,71.6238
2019-04-10T11:21:02.939Z,70.6989
2019-04-10T11:22:03.301Z,73.4638
2019-04-10T11:23:04.493Z,73.4874
2019-04-10T11:24:04.819Z,74.7451
2019-04-10T11:25:06.183Z,72.3389
2019-04-10T11:26:08.440Z,76.4290
2019-04-10T11:27:10.377Z,73.5646
2019-04-10T11:28:16.266Z,72.0084
2019-04-10T11:29:17.627Z,71.1260
2019-04-10T11:30:20.504Z,68.7859
2019-04-10T11:31:23.807Z,69.3231
2019-04-10T11:32:26.539Z,71.2686
2019-04-10T11:33:27.821Z,71.7256
2019-04-10T11:34:29.358Z,74.2866
2019-04-10T11:35:31.687Z,74.8610
2019-04-10T11:36:34.431Z,72.9147
2019-04-10T11:38:42.974Z,73.9212
2019-04-10T11:39:48.122Z,74.8432
2019-04-10T11:40:52.225Z,72.6539
2019-04-10T11:41:57.788Z,72.3045
2019-04-10T11:43:03.328Z,72.2512
2019-04-10T11:44:09.080Z,72.0245
2019-04-10T11:45:10.763Z,74.6692
2019-04-10T11:46:13.547Z,74.6818
2019-04-10T11:47:14.944Z,75.2844
2019-04-10T11:48:18.263Z,75.3537
2019-04-10T11:49:22.934Z,74.4382
2019-04-10T11:50:25.498Z,73.5472
2019-04-10T11:51:30.261Z,74.8808
2019-04-10T11:52:39.545Z,75.5294
2019-04-10T11:53:44.519Z,78.3074
2019-04-10T11:54:46.949Z,78.2770
2019-04-10T11:55:52.867Z,80.1966
2019-04-10T11:56:58.301Z,79.9368
2019-04-10T11:57:59.983Z,79.3652
2019-04-10T11:59:02.253Z,77.5127
2019-04-10T12:00:10.680Z,76.7924
2019-04-10T12:01:13.075Z,77.5849
2019-04-10T12:02:16.896Z,76.3916
2019-04-10T12:03:22.226Z,74.9668
2019-04-10T12:04:27.835Z,76.3004
2019-04-10T12:05:31.712Z,77.1018
2019-04-10T12:06:34.028Z,75.6391
2019-04-10T12:08:06.089Z,75.9347
2019-04-10T12:09:03.853Z,76.1095
2019-04-10T12:11:14.571Z,76.3008
2019-04-10T12:12:01.417Z,76.3692
2019-04-10T12:13:02.855Z,77.1025
2019-04-10T12:14:04.991Z,75.9744
2019-04-10T12:15:06.380Z,77.1929
2019-04-10T12:16:07.598Z,77.6716
2019-04-10T12:17:09.675Z,77.0950
2019-04-10T12:18:11.428Z,76.1940
2019-04-10T12:19:13.135Z,76.8888
2019-04-10T12:20:14.419Z,77.8265
2019-04-10T12:21:15.786Z,78.0064
2019-04-10T12:22:16.995Z,79.2060
2019-04-10T12:23:18.856Z,79.2549
2019-04-10T12:24:20.097Z,78.6932
2019-04-10T12:25:21.290Z,77.3267
2019-04-10T12:26:23.467Z,79.9149
2019-04-10T12:27:25.138Z,80.3445
2019-04-10T12:28:26.628Z,78.7077
2019-04-10T12:29:29.062Z,78.4368
2019-04-10T12:30:31.165Z,81.0959
2019-04-10T12:31:33.064Z,81.5326
2019-04-10T12:32:34.397Z,79.6150
2019-04-10T12:33:35.944Z,78.8772